Overcombe, United Kingdom
Current Conditions -  °F | °C
As of 4:50 AM on Monday 20 Oct 2014 (Local Time) from EGDY Reporting Station
Broken Clouds Broken Clouds  
Wind Chill: 54°   Ceiling: 1800
Heat Index: 54°   Visibility: 6mi
Dew Point: 52°   Wind: 8mph
Humidity: 94%   Direction: 220°SW
Pressure: 30.03"   Gusts: NA
Location:  50.64°N, 2.43°W
Report Text: EGDY 200350Z 22007KT 9999 FEW012 BKN018 12/11 Q1017 WHT
Loading
Personal Weather Stations






























Interactive Weather Map
Tropical Storm Tracking
New forecast layout! Learn more

10-Day Weather Forecast

Advertisements
Track Severe Weather on mobile